createdAt,value
2019-04-23T00:00:19.841Z,12.50
2019-04-23T00:01:46.692Z,12.50
2019-04-23T00:02:54.975Z,12.50
2019-04-23T00:03:58.437Z,12.50
2019-04-23T00:05:07.999Z,12.50
2019-04-23T00:06:19.172Z,12.50
2019-04-23T00:07:26.488Z,12.50
2019-04-23T00:08:28.551Z,12.50
2019-04-23T00:09:35.545Z,12.40
2019-04-23T00:10:35.182Z,12.40
2019-04-23T00:11:46.144Z,12.40
2019-04-23T00:13:04.264Z,12.40
2019-04-23T00:14:00.631Z,12.40
2019-04-23T00:15:07.557Z,12.30
2019-04-23T00:16:14.071Z,12.30
2019-04-23T00:17:22.655Z,12.30
2019-04-23T00:18:30.741Z,12.30
2019-04-23T00:19:31.111Z,12.30
2019-04-23T00:20:37.424Z,12.30
2019-04-23T00:21:48.580Z,12.30
2019-04-23T00:23:05.099Z,12.30
2019-04-23T00:24:46.591Z,12.30
2019-04-23T00:26:50.436Z,12.30
2019-04-23T00:28:07.894Z,12.30
2019-04-23T00:30:09.944Z,12.30
2019-04-23T00:31:40.874Z,12.20
2019-04-23T00:32:30.314Z,12.20
2019-04-23T00:33:31.442Z,12.20
2019-04-23T00:34:41.416Z,12.20
2019-04-23T00:35:48.659Z,12.20
2019-04-23T00:36:51.753Z,12.20
2019-04-23T00:37:54.889Z,12.20
2019-04-23T00:39:06.379Z,12.20
2019-04-23T00:40:14.813Z,12.20
2019-04-23T00:41:21.186Z,12.20
2019-04-23T00:42:32.891Z,12.20
2019-04-23T00:43:27.112Z,12.20
2019-04-23T00:44:42.992Z,12.20
2019-04-23T00:45:44.159Z,12.20
2019-04-23T00:46:50.803Z,12.20
2019-04-23T00:47:54.915Z,12.20
2019-04-23T00:49:04.902Z,12.20
2019-04-23T00:50:12.457Z,12.20
2019-04-23T00:51:13.838Z,12.20
2019-04-23T00:53:29.602Z,12.20
2019-04-23T00:54:37.372Z,12.10
2019-04-23T00:55:44.696Z,12.20
2019-04-23T00:58:03.147Z,12.20
2019-04-23T00:59:01.079Z,12.20
2019-04-23T01:00:26.121Z,12.10
2019-04-23T01:01:11.304Z,12.10
2019-04-23T01:02:24.628Z,12.20
2019-04-23T01:03:21.780Z,12.10
2019-04-23T01:04:34.167Z,12.20
2019-04-23T01:06:44.637Z,12.10
2019-04-23T01:07:49.998Z,12.10
2019-04-23T01:08:55.418Z,12.10
2019-04-23T01:10:13.961Z,12.10
2019-04-23T01:11:20.663Z,12.10
2019-04-23T01:12:31.221Z,12.10
2019-04-23T01:13:37.794Z,12.10
2019-04-23T01:14:38.598Z,12.10
2019-04-23T01:15:46.208Z,12.10
2019-04-23T01:16:48.365Z,12.10
2019-04-23T01:18:08.486Z,12.10
2019-04-23T01:19:06.831Z,12.10
2019-04-23T01:20:20.855Z,12.10
2019-04-23T01:21:18.010Z,12.10
2019-04-23T01:22:25.419Z,12.20
2019-04-23T01:24:00.312Z,12.20
2019-04-23T01:25:23.718Z,12.20
2019-04-23T01:26:37.612Z,12.20
2019-04-23T01:27:55.865Z,12.20
2019-04-23T01:29:07.023Z,12.20
2019-04-23T01:31:23.300Z,12.20
2019-04-23T01:32:30.026Z,12.10
2019-04-23T01:33:37.993Z,12.10
2019-04-23T01:34:38.965Z,12.10
2019-04-23T01:35:55.654Z,12.10
2019-04-23T01:36:54.589Z,12.10
2019-04-23T01:38:11.085Z,12.10
2019-04-23T01:39:08.524Z,12.10
2019-04-23T01:40:12.404Z,12.10
2019-04-23T01:41:25.222Z,12.10
2019-04-23T01:42:29.070Z,12.10
2019-04-23T01:43:30.529Z,12.10
2019-04-23T01:45:34.201Z,12.10
2019-04-23T01:46:49.467Z,12.10
2019-04-23T01:47:58.003Z,12.00
2019-04-23T01:48:58.711Z,12.00
2019-04-23T01:50:13.743Z,12.00
2019-04-23T01:51:14.998Z,12.00
2019-04-23T01:52:24.977Z,12.00
2019-04-23T01:54:39.124Z,12.00
2019-04-23T01:55:44.050Z,12.00
2019-04-23T01:56:49.383Z,12.00
2019-04-23T01:58:09.830Z,12.00
2019-04-23T01:59:05.070Z,12.00
2019-04-23T02:01:11.774Z,12.00
2019-04-23T02:02:29.817Z,12.00
2019-04-23T02:03:26.667Z,12.00
2019-04-23T02:04:36.582Z,12.00
2019-04-23T02:05:43.354Z,12.00
2019-04-23T02:06:45.000Z,11.90
2019-04-23T02:08:02.136Z,11.90
2019-04-23T02:09:00.494Z,11.90
2019-04-23T02:10:14.226Z,11.90
2019-04-23T02:11:25.616Z,11.90
2019-04-23T02:12:20.713Z,11.90
2019-04-23T02:13:33.955Z,11.90
2019-04-23T02:14:39.613Z,11.90
2019-04-23T02:15:36.373Z,11.90
2019-04-23T02:16:47.703Z,11.80
2019-04-23T02:18:59.560Z,11.80
2019-04-23T02:20:14.439Z,11.80
2019-04-23T02:21:10.605Z,11.80
2019-04-23T02:23:01.679Z,11.80
2019-04-23T02:23:55.091Z,11.80
2019-04-23T02:25:34.927Z,11.80
2019-04-23T02:26:30.971Z,11.80
2019-04-23T02:27:43.835Z,11.80
2019-04-23T02:28:47.584Z,11.80
2019-04-23T02:30:15.609Z,11.80
2019-04-23T02:34:33.459Z,11.70
2019-04-23T02:35:46.844Z,11.70
2019-04-23T02:37:54.618Z,11.70
2019-04-23T02:41:04.580Z,11.60
2019-04-23T02:43:12.622Z,11.60
2019-04-23T02:45:36.019Z,11.60
2019-04-23T02:46:31.677Z,11.60
2019-04-23T02:48:44.232Z,11.60
2019-04-23T02:50:01.733Z,11.60
2019-04-23T02:50:54.178Z,11.60
2019-04-23T02:53:17.487Z,11.50
2019-04-23T02:54:29.149Z,11.50
2019-04-23T02:55:29.251Z,11.50
2019-04-23T02:56:48.679Z,11.50
2019-04-23T02:57:36.903Z,11.50
2019-04-23T02:58:42.344Z,11.50
2019-04-23T03:02:17.551Z,11.50
2019-04-23T03:03:06.155Z,11.50
2019-04-23T03:04:17.362Z,11.50
2019-04-23T03:05:19.746Z,11.50
2019-04-23T03:06:36.237Z,11.50
2019-04-23T03:07:38.949Z,11.40
2019-04-23T03:08:42.681Z,11.40
2019-04-23T03:09:45.231Z,11.40
2019-04-23T03:11:01.363Z,11.40
2019-04-23T03:14:18.621Z,11.30
2019-04-23T03:15:39.780Z,11.20
2019-04-23T03:16:45.489Z,11.20
2019-04-23T03:19:15.322Z,11.10
2019-04-23T03:20:35.002Z,11.10
2019-04-23T03:21:46.909Z,11.10
2019-04-23T03:23:03.701Z,11.10
2019-04-23T03:25:31.037Z,11.00
2019-04-23T03:26:55.695Z,10.90
2019-04-23T03:27:50.170Z,10.90
2019-04-23T03:29:04.083Z,10.90
2019-04-23T03:30:15.707Z,10.80
2019-04-23T03:32:45.848Z,10.80
2019-04-23T03:36:33.823Z,10.80
2019-04-23T03:40:09.884Z,10.70
2019-04-23T03:41:21.532Z,10.70
2019-04-23T03:42:17.760Z,10.70
2019-04-23T03:43:39.059Z,10.70
2019-04-23T03:45:48.662Z,10.70
2019-04-23T03:46:37.084Z,10.70
2019-04-23T03:47:48.121Z,10.70
2019-04-23T03:48:51.180Z,10.70
2019-04-23T03:50:23.672Z,10.70
2019-04-23T03:51:09.016Z,10.60
2019-04-23T03:52:30.970Z,10.70
2019-04-23T03:53:34.657Z,10.70
2019-04-23T03:56:52.493Z,10.60
2019-04-23T03:57:47.950Z,10.60
2019-04-23T03:59:05.810Z,10.60
2019-04-23T04:01:13.969Z,10.60
2019-04-23T04:02:35.299Z,10.60
2019-04-23T04:04:01.681Z,10.60
2019-04-23T04:04:32.959Z,10.60
2019-04-23T04:05:45.821Z,10.60
2019-04-23T04:08:02.494Z,10.60
2019-04-23T04:09:08.116Z,10.60
2019-04-23T04:11:11.370Z,10.50
2019-04-23T04:12:25.052Z,10.50
2019-04-23T04:14:38.433Z,10.50
2019-04-23T04:15:48.375Z,10.50
2019-04-23T04:16:47.051Z,10.50
2019-04-23T04:17:55.343Z,10.50
2019-04-23T04:18:57.323Z,10.50
2019-04-23T04:21:18.508Z,10.50
2019-04-23T04:23:24.246Z,10.50
2019-04-23T04:25:42.811Z,10.50
2019-04-23T04:26:50.949Z,10.40
2019-04-23T04:27:54.117Z,10.50
2019-04-23T04:30:01.174Z,10.50
2019-04-23T04:31:10.036Z,10.40
2019-04-23T04:32:03.692Z,10.40
2019-04-23T04:35:27.342Z,10.40
2019-04-23T04:36:53.512Z,10.40
2019-04-23T04:37:52.801Z,10.40
2019-04-23T04:40:04.642Z,10.40
2019-04-23T04:42:12.511Z,10.50
2019-04-23T04:45:42.222Z,10.50
2019-04-23T04:46:39.598Z,10.50
2019-04-23T04:49:09.316Z,10.50
2019-04-23T04:49:59.500Z,10.50
2019-04-23T04:51:16.446Z,10.50
2019-04-23T04:52:21.864Z,10.50
2019-04-23T04:53:47.095Z,10.50
2019-04-23T04:54:21.180Z,10.60
2019-04-23T04:55:26.297Z,10.60
2019-04-23T04:56:40.356Z,10.60
2019-04-23T05:01:18.588Z,10.70
2019-04-23T05:02:22.467Z,10.70
2019-04-23T05:04:38.153Z,10.80
2019-04-23T05:05:51.061Z,10.80
2019-04-23T05:06:44.428Z,10.80
2019-04-23T05:07:40.358Z,10.80
2019-04-23T05:10:07.381Z,10.80
2019-04-23T05:14:33.356Z,10.80
2019-04-23T05:15:30.986Z,10.80
2019-04-23T05:16:35.637Z,10.80
2019-04-23T05:19:23.485Z,10.80
2019-04-23T05:20:20.484Z,10.80
2019-04-23T05:22:33.768Z,10.80
2019-04-23T05:25:52.391Z,10.90
2019-04-23T05:26:57.965Z,10.90
2019-04-23T05:28:08.144Z,10.90
2019-04-23T05:32:28.804Z,11.00
2019-04-23T05:33:41.546Z,11.00
2019-04-23T05:34:46.722Z,11.10
2019-04-23T05:36:14.734Z,11.10
2019-04-23T05:37:01.162Z,11.10
2019-04-23T05:38:18.816Z,11.10
2019-04-23T05:40:30.452Z,11.10
2019-04-23T05:42:37.937Z,11.10
2019-04-23T05:43:43.514Z,11.10
2019-04-23T05:44:51.026Z,11.20
2019-04-23T05:46:14.258Z,11.20
2019-04-23T05:47:07.314Z,11.30
2019-04-23T05:49:11.086Z,11.30
2019-04-23T05:50:32.475Z,11.30
2019-04-23T05:51:33.520Z,11.30
2019-04-23T05:52:37.929Z,11.30
2019-04-23T05:53:43.937Z,11.40
2019-04-23T05:54:49.876Z,11.40
2019-04-23T05:55:55.379Z,11.40
2019-04-23T05:56:55.143Z,11.50
2019-04-23T05:58:08.610Z,11.50
2019-04-23T05:59:06.599Z,11.50
2019-04-23T06:00:19.012Z,11.50
2019-04-23T06:01:49.358Z,11.60
2019-04-23T06:02:45.369Z,11.60
2019-04-23T06:03:48.985Z,11.70
2019-04-23T06:04:51.616Z,11.70
2019-04-23T06:06:18.449Z,11.70
2019-04-23T06:07:33.293Z,11.80
2019-04-23T06:08:28.788Z,11.80
2019-04-23T06:09:30.466Z,11.80
2019-04-23T06:10:44.079Z,12.00
2019-04-23T06:11:51.189Z,12.00
2019-04-23T06:12:52.072Z,12.10
2019-04-23T06:15:08.919Z,12.50
2019-04-23T06:16:15.759Z,12.60
2019-04-23T06:17:21.582Z,12.80
2019-04-23T06:19:30.383Z,13.10
2019-04-23T06:20:42.585Z,13.30
2019-04-23T06:22:22.373Z,13.50
2019-04-23T06:23:58.529Z,13.80
2019-04-23T06:25:14.313Z,14.00
2019-04-23T06:26:25.410Z,14.00
2019-04-23T06:27:22.054Z,14.20
2019-04-23T06:28:27.682Z,14.30
2019-04-23T06:29:32.160Z,14.30
2019-04-23T06:31:50.869Z,14.50
2019-04-23T06:32:51.313Z,14.30
2019-04-23T06:34:04.149Z,14.40
2019-04-23T06:35:04.792Z,14.40
2019-04-23T06:36:15.811Z,14.70
2019-04-23T06:37:18.080Z,14.80
2019-04-23T06:39:35.845Z,15.40
2019-04-23T06:40:44.938Z,15.40
2019-04-23T06:41:51.605Z,15.40
2019-04-23T06:43:05.394Z,15.30
2019-04-23T06:44:19.127Z,15.20
2019-04-23T06:45:15.885Z,15.20
2019-04-23T06:46:29.111Z,15.30
2019-04-23T06:47:29.344Z,15.40
2019-04-23T06:48:43.386Z,15.30
2019-04-23T06:49:59.737Z,15.30
2019-04-23T06:51:02.376Z,15.50
2019-04-23T06:52:10.316Z,15.50
2019-04-23T06:53:21.450Z,15.50
2019-04-23T06:54:19.128Z,15.60
2019-04-23T06:55:31.842Z,15.60
2019-04-23T06:56:37.526Z,15.50
2019-04-23T06:57:41.210Z,15.60
2019-04-23T06:58:44.129Z,15.80
2019-04-23T06:59:52.636Z,15.80
2019-04-23T07:01:00.657Z,15.80
2019-04-23T07:02:06.216Z,15.60
2019-04-23T07:03:16.160Z,15.60
2019-04-23T07:04:18.148Z,15.60
2019-04-23T07:05:25.250Z,15.70
2019-04-23T07:06:30.115Z,15.90
2019-04-23T07:07:50.032Z,16.00
2019-04-23T07:09:51.996Z,15.90
2019-04-23T07:11:00.067Z,15.80
2019-04-23T07:12:05.783Z,15.80
2019-04-23T07:13:13.981Z,16.10
2019-04-23T07:14:12.552Z,16.30
2019-04-23T07:15:33.469Z,16.50
2019-04-23T07:16:31.354Z,16.50
2019-04-23T07:17:34.843Z,16.40
2019-04-23T07:18:41.131Z,16.30
2019-04-23T07:19:48.086Z,16.30
2019-04-23T07:21:00.454Z,16.30
2019-04-23T07:22:06.647Z,16.50
2019-04-23T07:23:14.117Z,16.60
2019-04-23T07:27:31.754Z,16.60
2019-04-23T07:28:43.529Z,16.70
2019-04-23T07:31:02.170Z,16.40
2019-04-23T07:31:58.987Z,16.50
2019-04-23T07:33:04.019Z,16.60
2019-04-23T07:34:26.476Z,16.60
2019-04-23T07:35:15.968Z,16.70
2019-04-23T07:36:31.042Z,16.60
2019-04-23T07:37:34.383Z,16.70
2019-04-23T07:39:01.271Z,16.80
2019-04-23T07:41:37.832Z,16.70
2019-04-23T07:43:03.454Z,16.90
2019-04-23T07:44:40.343Z,16.70
2019-04-23T07:46:08.239Z,16.80
2019-04-23T07:47:15.786Z,17.00
2019-04-23T07:49:23.715Z,17.50
2019-04-23T07:50:41.362Z,17.40
2019-04-23T07:51:51.710Z,17.50
2019-04-23T07:53:00.248Z,17.60
2019-04-23T07:54:06.281Z,17.90
2019-04-23T07:55:06.760Z,18.30
2019-04-23T07:56:07.601Z,18.10
2019-04-23T07:58:23.394Z,17.60
2019-04-23T07:59:33.324Z,17.70
2019-04-23T08:00:41.504Z,17.80
2019-04-23T08:01:39.190Z,17.80
2019-04-23T08:02:47.753Z,17.90
2019-04-23T08:03:56.185Z,18.00
2019-04-23T08:05:11.274Z,17.80
2019-04-23T08:06:10.207Z,17.70
2019-04-23T08:07:14.715Z,17.80
2019-04-23T08:08:26.899Z,17.70
2019-04-23T08:09:35.904Z,17.80
2019-04-23T08:10:42.043Z,17.70
2019-04-23T08:11:40.393Z,17.90
2019-04-23T08:13:12.069Z,18.20
2019-04-23T08:13:57.281Z,18.40
2019-04-23T08:15:07.452Z,18.50
2019-04-23T08:16:19.684Z,18.40
2019-04-23T08:17:21.001Z,18.30
2019-04-23T08:18:23.175Z,18.10
2019-04-23T08:19:34.714Z,17.70
2019-04-23T08:20:35.287Z,17.40
2019-04-23T08:21:40.166Z,17.50
2019-04-23T08:22:49.568Z,17.50
2019-04-23T08:24:11.970Z,17.40
2019-04-23T08:25:45.749Z,17.40
2019-04-23T08:27:02.717Z,17.40
2019-04-23T08:28:29.005Z,17.50
2019-04-23T08:29:30.997Z,17.50
2019-04-23T08:30:32.697Z,17.60
2019-04-23T08:31:43.688Z,17.70
2019-04-23T08:32:47.674Z,17.90
2019-04-23T08:33:56.889Z,18.10
2019-04-23T08:37:15.028Z,18.10
2019-04-23T08:38:25.892Z,18.20
2019-04-23T08:39:28.669Z,18.00
2019-04-23T08:40:35.521Z,17.90
2019-04-23T08:41:46.817Z,17.80
2019-04-23T08:43:11.034Z,17.60
2019-04-23T08:43:59.482Z,17.50
2019-04-23T08:45:21.727Z,17.50
2019-04-23T08:47:08.717Z,17.60
2019-04-23T08:48:13.989Z,17.60
2019-04-23T08:49:22.654Z,17.30
2019-04-23T08:50:26.327Z,17.30
2019-04-23T08:52:32.591Z,17.20
2019-04-23T08:53:56.432Z,17.20
2019-04-23T08:55:00.876Z,17.20
2019-04-23T08:57:02.403Z,17.20
2019-04-23T08:58:13.540Z,17.20
2019-04-23T08:59:29.875Z,17.20
2019-04-23T09:00:31.420Z,17.30
2019-04-23T09:01:57.901Z,17.40
2019-04-23T09:02:54.273Z,17.10
2019-04-23T09:04:54.217Z,17.10
2019-04-23T09:07:11.413Z,16.90
2019-04-23T09:08:13.088Z,16.90
2019-04-23T09:09:21.558Z,16.90
2019-04-23T09:10:26.386Z,17.00
2019-04-23T09:11:41.722Z,17.00
2019-04-23T09:12:36.661Z,17.00
2019-04-23T09:14:54.746Z,17.00
2019-04-23T09:15:58.347Z,16.90
2019-04-23T09:17:09.199Z,16.90
2019-04-23T09:18:10.891Z,17.00
2019-04-23T09:19:32.185Z,16.90
2019-04-23T09:21:27.630Z,17.10
2019-04-23T09:22:34.721Z,17.10
2019-04-23T09:24:48.780Z,17.30
2019-04-23T09:26:03.828Z,17.20
2019-04-23T09:27:09.382Z,17.20
2019-04-23T09:28:09.120Z,17.10
2019-04-23T09:29:11.917Z,17.10
2019-04-23T09:30:18.787Z,17.00
2019-04-23T09:32:07.312Z,17.10
2019-04-23T09:32:58.835Z,17.10
2019-04-23T09:34:09.725Z,17.10
2019-04-23T09:35:35.938Z,17.10
2019-04-23T09:37:10.269Z,17.10
2019-04-23T09:38:36.193Z,17.00
2019-04-23T09:39:58.930Z,17.00
2019-04-23T09:42:38.921Z,16.80
2019-04-23T09:43:53.964Z,16.80
2019-04-23T09:45:04.131Z,16.90
2019-04-23T09:48:04.481Z,16.90
2019-04-23T09:49:14.998Z,16.90
2019-04-23T09:50:15.755Z,17.00
2019-04-23T09:51:20.155Z,16.90
2019-04-23T09:53:29.611Z,17.00
2019-04-23T09:54:40.217Z,17.00
2019-04-23T09:56:47.758Z,17.00
2019-04-23T09:58:06.405Z,17.10
2019-04-23T09:59:08.953Z,17.10
2019-04-23T10:00:16.871Z,17.20
2019-04-23T10:01:25.990Z,17.30
2019-04-23T10:02:27.319Z,17.30
2019-04-23T10:03:32.125Z,17.30
2019-04-23T10:04:32.026Z,17.30
2019-04-23T10:05:39.132Z,17.30
2019-04-23T10:06:36.834Z,17.30
2019-04-23T10:07:50.809Z,17.30
2019-04-23T10:08:51.932Z,17.20
2019-04-23T10:09:55.558Z,17.30
2019-04-23T10:11:05.090Z,17.30
2019-04-23T10:12:11.454Z,17.40
2019-04-23T10:13:17.964Z,17.50
2019-04-23T10:14:24.059Z,17.50
2019-04-23T10:15:34.940Z,17.50
2019-04-23T10:16:36.842Z,17.50
2019-04-23T10:17:42.390Z,17.50
2019-04-23T10:18:48.928Z,17.50
2019-04-23T10:19:55.178Z,17.60
2019-04-23T10:21:01.387Z,17.60
2019-04-23T10:22:07.214Z,17.60
2019-04-23T10:23:12.422Z,17.70
2019-04-23T10:24:21.053Z,17.60
2019-04-23T10:25:25.842Z,17.40
2019-04-23T10:26:32.527Z,17.50
2019-04-23T10:27:39.162Z,17.50
2019-04-23T10:28:51.753Z,17.50
2019-04-23T10:29:59.886Z,17.50
2019-04-23T10:31:07.158Z,17.50
2019-04-23T10:32:13.470Z,17.60
2019-04-23T10:33:19.247Z,17.60
2019-04-23T10:34:25.338Z,17.50
2019-04-23T10:35:41.099Z,17.50
2019-04-23T10:36:38.648Z,17.50
2019-04-23T10:37:50.940Z,17.50
2019-04-23T10:38:59.493Z,17.50
2019-04-23T10:39:59.221Z,17.60
2019-04-23T10:41:04.297Z,17.50
2019-04-23T10:42:09.954Z,17.60
2019-04-23T10:43:15.239Z,17.50
2019-04-23T10:44:38.087Z,17.60
2019-04-23T10:46:23.203Z,17.50
2019-04-23T10:47:54.358Z,17.50
2019-04-23T10:49:31.607Z,17.50
2019-04-23T10:50:57.147Z,17.60
2019-04-23T10:52:07.121Z,17.60
2019-04-23T10:53:18.772Z,17.60
2019-04-23T10:54:27.924Z,17.60
2019-04-23T10:55:25.230Z,17.50
2019-04-23T10:56:36.131Z,17.50
2019-04-23T10:57:31.737Z,17.60
2019-04-23T10:58:38.686Z,17.70
2019-04-23T11:00:04.410Z,17.70
2019-04-23T11:01:00.272Z,17.70
2019-04-23T11:02:29.693Z,17.70
2019-04-23T11:03:31.544Z,17.70
2019-04-23T11:04:47.343Z,17.70
2019-04-23T11:05:47.407Z,17.80
2019-04-23T11:06:47.181Z,17.90
2019-04-23T11:07:38.280Z,18.00
2019-04-23T11:08:49.891Z,18.00
2019-04-23T11:10:04.440Z,18.00
2019-04-23T11:12:42.155Z,18.00
2019-04-23T11:13:44.938Z,17.90
2019-04-23T11:14:58.189Z,18.00
2019-04-23T11:17:26.018Z,17.80
2019-04-23T11:18:12.351Z,17.90
2019-04-23T11:19:23.647Z,18.00
2019-04-23T11:20:30.486Z,18.00
2019-04-23T11:21:58.452Z,18.10
2019-04-23T11:23:42.914Z,18.00
2019-04-23T11:25:48.489Z,18.10
2019-04-23T11:27:11.514Z,18.10
2019-04-23T11:28:13.545Z,18.00
2019-04-23T11:29:19.663Z,18.00
2019-04-23T11:31:38.266Z,17.90
2019-04-23T11:33:42.963Z,18.10
2019-04-23T11:37:14.501Z,18.40
2019-04-23T11:38:43.851Z,18.40
2019-04-23T11:39:18.795Z,18.40
2019-04-23T11:42:42.661Z,18.40
2019-04-23T11:43:46.523Z,18.50
2019-04-23T11:46:10.442Z,18.40
2019-04-23T11:47:23.263Z,18.30
2019-04-23T11:49:50.588Z,18.30
2019-04-23T11:51:13.880Z,18.40
2019-04-23T11:55:05.258Z,18.40
2019-04-23T11:58:21.873Z,18.50
2019-04-23T11:59:38.499Z,18.50
2019-04-23T12:00:56.210Z,18.60
2019-04-23T12:03:19.381Z,18.80
2019-04-23T12:08:43.231Z,18.70
2019-04-23T12:11:49.766Z,18.60
2019-04-23T12:14:03.884Z,18.50
2019-04-23T12:15:13.531Z,18.40
2019-04-23T12:16:21.929Z,18.30
2019-04-23T12:17:33.040Z,18.30
2019-04-23T12:18:34.939Z,18.20
2019-04-23T12:20:36.206Z,18.30
2019-04-23T12:21:53.123Z,18.30
2019-04-23T12:23:08.754Z,18.40
2019-04-23T12:24:17.168Z,18.40
2019-04-23T12:25:17.378Z,18.40
2019-04-23T12:26:22.855Z,18.40
2019-04-23T12:27:30.559Z,18.40
2019-04-23T12:28:30.095Z,18.40
2019-04-23T12:32:20.599Z,18.60
2019-04-23T12:33:33.198Z,18.60
2019-04-23T12:34:25.507Z,18.70
2019-04-23T12:35:28.535Z,18.70
2019-04-23T12:37:53.638Z,18.60
2019-04-23T12:39:07.184Z,18.60
2019-04-23T12:40:15.088Z,18.50
2019-04-23T12:41:13.001Z,18.40
2019-04-23T12:42:45.123Z,18.50
2019-04-23T12:43:23.796Z,18.50
2019-04-23T12:44:38.547Z,18.50
2019-04-23T12:45:50.431Z,18.50
2019-04-23T12:46:54.107Z,18.50
2019-04-23T12:48:07.689Z,18.40
2019-04-23T12:49:27.687Z,18.40
2019-04-23T12:50:38.071Z,18.40
2019-04-23T12:51:26.413Z,18.30
2019-04-23T12:52:35.980Z,18.20
2019-04-23T12:53:38.266Z,18.20
2019-04-23T12:55:43.780Z,18.30
2019-04-23T12:57:03.634Z,18.30
2019-04-23T12:58:02.769Z,18.20
2019-04-23T12:59:12.408Z,18.20
2019-04-23T13:00:16.006Z,18.20
2019-04-23T13:01:25.148Z,18.20
2019-04-23T13:02:38.330Z,18.20
2019-04-23T13:03:37.187Z,18.20
2019-04-23T13:04:48.435Z,18.20
2019-04-23T13:05:36.687Z,18.20
2019-04-23T13:06:57.852Z,18.30
2019-04-23T13:08:02.045Z,18.30
2019-04-23T13:13:42.573Z,18.50
2019-04-23T13:14:49.564Z,18.60
2019-04-23T13:15:48.956Z,18.60
2019-04-23T13:17:02.710Z,18.70
2019-04-23T13:19:14.734Z,18.70
2019-04-23T13:20:18.824Z,18.70
2019-04-23T13:21:46.729Z,18.80
2019-04-23T13:22:40.562Z,18.90
2019-04-23T13:23:37.486Z,18.80
2019-04-23T13:24:48.719Z,18.80
2019-04-23T13:25:57.603Z,18.70
2019-04-23T13:27:10.760Z,18.70
2019-04-23T13:28:21.045Z,18.70
2019-04-23T13:29:37.452Z,18.70
2019-04-23T13:30:37.601Z,18.80
2019-04-23T13:31:34.649Z,18.90
2019-04-23T13:32:53.295Z,18.90
2019-04-23T13:33:52.186Z,18.80
2019-04-23T13:35:25.690Z,18.80
2019-04-23T13:37:24.309Z,18.60
2019-04-23T13:38:28.274Z,18.50
2019-04-23T13:39:38.942Z,18.50
2019-04-23T13:40:39.410Z,18.40
2019-04-23T13:41:40.397Z,18.40
2019-04-23T13:42:52.554Z,18.50
2019-04-23T13:44:08.564Z,18.50
2019-04-23T13:45:05.468Z,18.50
2019-04-23T13:46:13.188Z,18.50
2019-04-23T13:47:29.007Z,18.50
2019-04-23T13:48:16.717Z,18.50
2019-04-23T13:49:31.578Z,18.50
2019-04-23T13:50:42.175Z,18.50
2019-04-23T13:51:39.971Z,18.50
2019-04-23T13:56:11.279Z,18.40
2019-04-23T13:57:49.763Z,18.30
2019-04-23T13:59:38.863Z,18.30
2019-04-23T14:01:01.333Z,18.30
2019-04-23T14:01:39.835Z,18.20
2019-04-23T14:02:54.728Z,18.00
2019-04-23T14:04:07.598Z,18.00
2019-04-23T14:05:23.761Z,17.90
2019-04-23T14:06:46.422Z,17.80
2019-04-23T14:07:38.607Z,17.80
2019-04-23T14:10:05.060Z,17.70
2019-04-23T14:10:55.425Z,17.70
2019-04-23T14:12:01.618Z,17.70
2019-04-23T14:14:32.489Z,17.70
2019-04-23T14:15:36.888Z,17.70
2019-04-23T14:17:59.678Z,17.70
2019-04-23T14:18:58.737Z,17.70
2019-04-23T14:20:05.713Z,17.70
2019-04-23T14:21:08.627Z,17.70
2019-04-23T14:22:31.281Z,17.80
2019-04-23T14:23:27.228Z,17.80
2019-04-23T14:24:38.885Z,17.80
2019-04-23T14:25:32.745Z,17.70
2019-04-23T14:26:34.145Z,17.80
2019-04-23T14:27:52.364Z,17.80
2019-04-23T14:28:44.521Z,17.70
2019-04-23T14:30:05.166Z,17.70
2019-04-23T14:31:07.860Z,17.70
2019-04-23T14:32:17.182Z,17.70
2019-04-23T14:33:28.625Z,17.80
2019-04-23T14:34:31.185Z,17.70
2019-04-23T14:36:44.720Z,17.70
2019-04-23T14:38:02.580Z,17.50
2019-04-23T14:40:29.767Z,17.40
2019-04-23T14:42:44.912Z,17.30
2019-04-23T14:43:49.806Z,17.30
2019-04-23T14:45:09.738Z,17.30
2019-04-23T14:48:46.064Z,17.30
2019-04-23T14:50:26.666Z,17.20
2019-04-23T14:52:14.599Z,17.10
2019-04-23T14:53:20.244Z,17.10
2019-04-23T14:54:34.637Z,17.10
2019-04-23T14:55:55.577Z,17.10
2019-04-23T14:57:06.303Z,17.10
2019-04-23T14:58:09.971Z,17.10
2019-04-23T15:00:03.308Z,17.00
2019-04-23T15:01:22.388Z,16.90
2019-04-23T15:02:19.469Z,16.90
2019-04-23T15:03:28.016Z,16.80
2019-04-23T15:04:31.980Z,16.70
2019-04-23T15:06:46.368Z,16.60
2019-04-23T15:07:51.396Z,16.50
2019-04-23T15:09:06.263Z,16.50
2019-04-23T15:10:12.185Z,16.40
2019-04-23T15:11:21.406Z,16.40
2019-04-23T15:14:33.101Z,16.40
2019-04-23T15:15:48.691Z,16.40
2019-04-23T15:16:57.126Z,16.40
2019-04-23T15:17:49.734Z,16.40
2019-04-23T15:22:39.126Z,16.40
2019-04-23T15:26:26.640Z,16.40
2019-04-23T15:28:59.319Z,16.40
2019-04-23T15:30:17.412Z,16.40
2019-04-23T15:31:33.011Z,16.40
2019-04-23T15:32:47.167Z,16.40
2019-04-23T15:33:54.974Z,16.40
2019-04-23T15:34:57.526Z,16.40
2019-04-23T15:36:22.721Z,16.40
2019-04-23T15:37:20.301Z,16.30
2019-04-23T15:38:30.385Z,16.30
2019-04-23T15:39:31.355Z,16.30
2019-04-23T15:40:26.878Z,16.30
2019-04-23T15:41:33.468Z,16.30
2019-04-23T15:43:47.337Z,16.30
2019-04-23T15:44:48.851Z,16.30
2019-04-23T15:46:06.236Z,16.30
2019-04-23T15:47:02.013Z,16.30
2019-04-23T15:48:11.170Z,16.30
2019-04-23T15:49:21.340Z,16.30
2019-04-23T15:50:23.528Z,16.30
2019-04-23T15:52:44.154Z,16.30
2019-04-23T15:53:46.455Z,16.30
2019-04-23T15:54:50.868Z,16.30
2019-04-23T15:55:59.461Z,16.30
2019-04-23T15:58:13.000Z,16.30
2019-04-23T16:00:27.617Z,16.30
2019-04-23T16:01:29.042Z,16.40
2019-04-23T16:02:05.828Z,16.30
2019-04-23T16:03:12.902Z,16.40
2019-04-23T16:04:19.660Z,16.30
2019-04-23T16:05:23.376Z,16.30
2019-04-23T16:06:30.930Z,16.30
2019-04-23T16:07:54.915Z,16.30
2019-04-23T16:10:17.740Z,16.30
2019-04-23T16:11:36.446Z,16.30
2019-04-23T16:12:31.360Z,16.30
2019-04-23T16:13:53.967Z,16.30
2019-04-23T16:14:56.798Z,16.30
2019-04-23T16:16:06.260Z,16.30
2019-04-23T16:17:08.215Z,16.20
2019-04-23T16:18:29.841Z,16.30
2019-04-23T16:19:54.827Z,16.20
2019-04-23T16:20:59.030Z,16.20
2019-04-23T16:22:09.310Z,16.10
2019-04-23T16:22:59.332Z,16.10
2019-04-23T16:24:13.656Z,16.00
2019-04-23T16:25:12.730Z,15.90
2019-04-23T16:26:31.145Z,15.90
2019-04-23T16:27:27.259Z,15.80
2019-04-23T16:29:00.013Z,15.80
2019-04-23T16:30:59.565Z,15.80
2019-04-23T16:32:26.371Z,15.70
2019-04-23T16:33:08.822Z,15.70
2019-04-23T16:34:27.313Z,15.70
2019-04-23T16:36:38.651Z,15.70
2019-04-23T16:38:01.709Z,15.60
2019-04-23T16:39:03.457Z,15.60
2019-04-23T16:40:16.563Z,15.60
2019-04-23T16:41:09.565Z,15.50
2019-04-23T16:42:21.822Z,15.60
2019-04-23T16:44:29.472Z,15.50
2019-04-23T16:45:31.746Z,15.50
2019-04-23T16:46:41.978Z,15.40
2019-04-23T16:47:48.342Z,15.40
2019-04-23T16:49:14.820Z,15.40
2019-04-23T16:50:04.912Z,15.40
2019-04-23T16:51:16.648Z,15.30
2019-04-23T16:52:14.708Z,15.40
2019-04-23T16:53:21.473Z,15.30
2019-04-23T16:55:44.753Z,15.30
2019-04-23T16:56:55.385Z,15.30
2019-04-23T16:58:59.917Z,15.30
2019-04-23T17:01:07.311Z,15.20
2019-04-23T17:02:14.830Z,15.20
2019-04-23T17:03:26.187Z,15.20
2019-04-23T17:05:46.135Z,15.20
2019-04-23T17:06:46.585Z,15.20
2019-04-23T17:08:08.743Z,15.20
2019-04-23T17:08:57.666Z,15.10
2019-04-23T17:10:11.482Z,15.20
2019-04-23T17:11:16.051Z,15.20
2019-04-23T17:12:16.239Z,15.20
2019-04-23T17:13:24.983Z,15.10
2019-04-23T17:14:23.287Z,15.10
2019-04-23T17:15:46.384Z,15.20
2019-04-23T17:16:39.920Z,15.20
2019-04-23T17:17:46.919Z,15.20
2019-04-23T17:19:09.327Z,15.20
2019-04-23T17:20:08.909Z,15.10
2019-04-23T17:21:23.378Z,15.10
2019-04-23T17:22:17.937Z,15.10
2019-04-23T17:23:39.267Z,15.10
2019-04-23T17:24:53.699Z,15.10
2019-04-23T17:25:41.809Z,15.00
2019-04-23T17:26:45.772Z,15.00
2019-04-23T17:28:00.209Z,15.00
2019-04-23T17:29:06.661Z,15.00
2019-04-23T17:30:11.611Z,15.00
2019-04-23T17:31:32.860Z,15.10
2019-04-23T17:32:27.950Z,15.00
2019-04-23T17:33:51.561Z,15.10
2019-04-23T17:34:55.311Z,15.00
2019-04-23T17:36:32.068Z,15.10
2019-04-23T17:37:29.982Z,15.10
2019-04-23T17:38:41.807Z,15.10
2019-04-23T17:40:09.326Z,15.20
2019-04-23T17:41:33.157Z,15.10
2019-04-23T17:42:44.002Z,15.20